Jerome County Airport

KJER · 爱达荷州, 美国

罗盘
风向 的 风向 060° Jerome County Airport 9/27
风: 14 kt, 4 beaufort

11 kt

9 kt
改变
0 ft 1.000 2.000 3.000 4.000 5.000
没有云
METAR KJER 290753Z AUTO 06014KT 10SM CLR M01/M04 A2995 RMK AO2 SLP157 T10061039

METAR Jerome County Airport - KJER

Jerome County Airport是,美国中的中型机场。 该机场位于纬度42,72668和经度-114,45665。 该机场有一条跑道: 9/27. 本场的ICAO机场代码为KJER。 该机场的本地机场标识(FAA LID)为JER。 机场在Salt Lake FIR中。

该航空气象观测是针对Jerome County Airport在2024年2月29日 00:53, 当地时间进行的。

机场观察

风向为060°,速度为14 kt。

可见度为10 mi。

有没有云。 没有观察到天花板。

温度为-1 °C,阵风为-9 °C。 露点为-4 °C,相对湿度为80%。 海平面上的气压为29,95 inHg (QNH)。

白天

今天,太阳从07:13升起,在18:26降落。 这适用于Jerome County Airport,世界夏令时可能有所不同。 当地时间与世界标准时间之间的时差为-7 小时。 当前,没有夏令时有效。

公司介绍

我们没有关于这个机场的公司信息。

体会

到Vliegles.nl去找飞行课程,跳伞和其他飞行体验。 浏览页面,了解Jerome County Airport附近所有可用的活动。 你也可以使用搜索功能来寻找你所在地附近的特定飞行课程、跳伞或其他飞行体验。

跑道

Id 标题 侧风 逆风 侧风 %
9/27 100°-280° 9 kt 11 kt 64 %

逆风成分最大的方向会被突出显示,并用于横风计算。 这并不一定意味着这个方向在使用。

乌云

- CLR 没有云

温度 & 天气

温度 -0,6 °C
露点 -3,9 °C
相对湿度 80%
风寒 -9 °C
Kp-index 2 (0-9)

评论

AO2自动气象站,可确定降水类型
SLP157海平面压力为29,99 inHg (29,99 inHg)
T10061039温度为-0,6 °C (30,9 °F),露点为-3,9 °C (25,0 °F)

白天

日出
07:13 (5:25)
中午
12:50
日落
18:26

小工具

你想在你的网站上有一个关于Jerome County Airport的当前航空天气(METAR)的小部件吗?

显示HTML代码
?>